createdAt,value
2019-04-03T00:02:06.830Z,30.26
2019-04-03T00:04:35.097Z,29.89
2019-04-03T00:07:05.186Z,30.61
2019-04-03T00:09:35.859Z,29.70
2019-04-03T00:12:03.339Z,30.12
2019-04-03T00:14:31.601Z,29.05
2019-04-03T00:16:59.844Z,30.42
2019-04-03T00:19:28.124Z,31.06
2019-04-03T00:21:56.429Z,31.64
2019-04-03T00:24:24.746Z,31.33
2019-04-03T00:26:53.012Z,31.32
2019-04-03T00:29:22.690Z,31.55
2019-04-03T00:31:53.094Z,31.65
2019-04-03T00:34:22.983Z,31.44
2019-04-03T00:36:53.030Z,31.62
2019-04-03T00:39:21.061Z,32.17
2019-04-03T00:41:49.335Z,31.12
2019-04-03T00:44:17.756Z,30.34
2019-04-03T00:46:45.970Z,30.12
2019-04-03T00:49:14.298Z,31.25
2019-04-03T00:51:42.656Z,31.39
2019-04-03T00:54:10.915Z,31.17
2019-04-03T00:56:39.178Z,31.04
2019-04-03T00:59:08.296Z,31.70
2019-04-03T01:01:36.621Z,31.05
2019-04-03T01:04:04.844Z,31.41
2019-04-03T01:06:33.106Z,31.38
2019-04-03T01:09:01.545Z,30.81
2019-04-03T01:11:30.662Z,31.30
2019-04-03T01:13:59.726Z,30.28
2019-04-03T01:16:30.831Z,30.64
2019-04-03T01:18:59.547Z,30.63
2019-04-03T01:21:27.756Z,31.00
2019-04-03T01:23:56.008Z,31.56
2019-04-03T01:26:24.274Z,29.84
2019-04-03T01:28:52.710Z,30.24
2019-04-03T01:31:20.995Z,30.38
2019-04-03T01:33:49.247Z,30.03
2019-04-03T01:36:18.195Z,28.77
2019-04-03T01:38:47.977Z,29.17
2019-04-03T01:41:16.531Z,29.13
2019-04-03T01:43:45.578Z,29.52
2019-04-03T01:46:13.829Z,29.09
2019-04-03T01:48:42.085Z,30.50
2019-04-03T01:51:10.367Z,28.45
2019-04-03T01:53:38.694Z,27.88
2019-04-03T01:56:07.109Z,29.21
2019-04-03T01:58:36.497Z,29.33
2019-04-03T02:01:07.589Z,28.96
2019-04-03T02:03:35.164Z,30.57
2019-04-03T02:06:03.651Z,29.14
2019-04-03T02:08:31.818Z,26.81
2019-04-03T02:11:00.094Z,28.77
2019-04-03T02:13:28.370Z,29.48
2019-04-03T02:15:56.646Z,29.20
2019-04-03T02:18:25.314Z,29.88
2019-04-03T02:20:54.181Z,27.91
2019-04-03T02:23:22.506Z,26.47
2019-04-03T02:25:50.828Z,27.83
2019-04-03T02:28:19.086Z,26.97
2019-04-03T02:30:47.429Z,26.88
2019-04-03T02:33:15.678Z,27.37
2019-04-03T02:35:43.920Z,27.13
2019-04-03T02:38:12.212Z,28.93
2019-04-03T02:40:40.470Z,29.96
2019-04-03T02:43:09.173Z,28.00
2019-04-03T02:45:37.486Z,26.83
2019-04-03T02:48:06.563Z,28.89
2019-04-03T02:50:35.377Z,28.54
2019-04-03T02:53:04.926Z,27.84
2019-04-03T02:55:33.540Z,29.73
2019-04-03T02:58:01.873Z,29.55
2019-04-03T03:00:33.039Z,29.69
2019-04-03T03:03:00.502Z,26.48
2019-04-03T03:05:29.213Z,27.33
2019-04-03T03:07:57.846Z,27.41
2019-04-03T03:10:26.277Z,26.45
2019-04-03T03:12:59.894Z,27.55
2019-04-03T03:15:25.797Z,27.40
2019-04-03T03:17:56.105Z,27.71
2019-04-03T03:20:25.135Z,29.25
2019-04-03T03:22:55.050Z,27.02
2019-04-03T03:25:23.329Z,25.97
2019-04-03T03:27:52.017Z,27.92
2019-04-03T03:30:36.191Z,28.03
2019-04-03T03:32:50.746Z,28.91
2019-04-03T03:35:28.095Z,28.43
2019-04-03T03:37:50.707Z,28.43
2019-04-03T03:40:19.370Z,26.25
2019-04-03T03:42:48.204Z,26.31
2019-04-03T03:45:20.528Z,29.15
2019-04-03T03:47:50.078Z,29.82
2019-04-03T03:50:26.063Z,27.33
2019-04-03T03:52:55.167Z,25.82
2019-04-03T03:55:25.479Z,27.37
2019-04-03T03:57:54.355Z,28.98
2019-04-03T04:00:24.055Z,29.24
2019-04-03T04:02:53.084Z,29.65
2019-04-03T04:05:22.962Z,27.98
2019-04-03T04:07:51.498Z,28.07
2019-04-03T04:10:24.000Z,29.29
2019-04-03T04:12:49.757Z,28.43
2019-04-03T04:15:18.361Z,29.40
2019-04-03T04:17:50.463Z,29.90
2019-04-03T04:20:16.578Z,27.24
2019-04-03T04:22:48.864Z,26.67
2019-04-03T04:25:15.153Z,27.32
2019-04-03T04:27:43.469Z,28.06
2019-04-03T04:30:12.408Z,28.92
2019-04-03T04:32:41.315Z,28.02
2019-04-03T04:35:10.928Z,27.76
2019-04-03T04:37:40.711Z,26.76
2019-04-03T04:40:08.988Z,27.55
2019-04-03T04:42:37.263Z,26.59
2019-04-03T04:45:06.869Z,26.31
2019-04-03T04:47:35.139Z,26.73
2019-04-03T04:50:03.957Z,29.18
2019-04-03T04:52:32.215Z,29.28
2019-04-03T04:55:01.997Z,28.16
2019-04-03T04:57:30.514Z,27.77
2019-04-03T04:59:58.805Z,28.48
2019-04-03T05:02:27.055Z,25.08
2019-04-03T05:04:56.131Z,26.09
2019-04-03T05:07:25.018Z,27.83
2019-04-03T05:09:53.342Z,28.31
2019-04-03T05:12:21.789Z,29.31
2019-04-03T05:14:50.034Z,28.36
2019-04-03T05:17:18.325Z,27.22
2019-04-03T05:19:46.871Z,28.97
2019-04-03T05:22:16.529Z,27.61
2019-04-03T05:24:45.107Z,28.59
2019-04-03T05:27:13.646Z,27.85
2019-04-03T05:29:41.908Z,27.84
2019-04-03T05:32:10.800Z,28.73
2019-04-03T05:34:39.361Z,26.95
2019-04-03T05:37:10.736Z,28.28
2019-04-03T05:39:37.871Z,27.70
2019-04-03T05:42:06.217Z,26.78
2019-04-03T05:44:36.191Z,26.87
2019-04-03T05:47:07.355Z,28.23
2019-04-03T05:49:34.524Z,27.12
2019-04-03T05:52:04.100Z,26.43
2019-04-03T05:54:33.072Z,28.00
2019-04-03T05:57:01.323Z,27.55
2019-04-03T05:59:32.502Z,27.11
2019-04-03T06:01:59.735Z,28.60
2019-04-03T06:04:28.164Z,28.66
2019-04-03T06:06:56.380Z,28.36
2019-04-03T06:09:24.643Z,28.62
2019-04-03T06:11:52.920Z,28.88
2019-04-03T06:14:23.205Z,29.30
2019-04-03T06:16:52.126Z,28.11
2019-04-03T06:19:20.467Z,29.25
2019-04-03T06:21:48.749Z,27.98
2019-04-03T06:24:17.980Z,29.15
2019-04-03T06:26:46.973Z,27.88
2019-04-03T06:29:15.181Z,29.22
2019-04-03T06:31:43.435Z,29.52
2019-04-03T06:34:11.820Z,27.46
2019-04-03T06:36:40.056Z,28.25
2019-04-03T06:39:08.743Z,28.46
2019-04-03T06:41:37.016Z,28.36
2019-04-03T06:44:05.283Z,28.77
2019-04-03T06:46:33.557Z,27.93
2019-04-03T06:49:01.880Z,29.12
2019-04-03T06:51:30.146Z,30.37
2019-04-03T06:53:59.548Z,29.66
2019-04-03T06:56:28.357Z,30.06
2019-04-03T06:58:56.621Z,28.71
2019-04-03T07:01:25.133Z,28.17
2019-04-03T07:03:53.609Z,30.18
2019-04-03T07:06:21.916Z,30.33
2019-04-03T07:08:50.178Z,28.46
2019-04-03T07:11:23.612Z,29.54
2019-04-03T07:13:48.466Z,28.12
2019-04-03T07:16:16.744Z,28.74
2019-04-03T07:18:44.997Z,29.74
2019-04-03T07:21:13.270Z,30.48
2019-04-03T07:23:41.552Z,29.37
2019-04-03T07:26:09.890Z,29.97
2019-04-03T07:28:40.592Z,29.99
2019-04-03T07:31:08.139Z,29.54
2019-04-03T07:33:36.438Z,31.27
2019-04-03T07:36:04.821Z,31.02
2019-04-03T07:38:33.130Z,31.07
2019-04-03T07:41:01.861Z,29.17
2019-04-03T07:43:31.362Z,30.30
2019-04-03T07:45:59.777Z,29.19
2019-04-03T07:48:28.325Z,28.90
2019-04-03T07:50:56.607Z,29.72
2019-04-03T07:53:25.121Z,30.32
2019-04-03T07:55:54.961Z,30.12
2019-04-03T07:58:25.326Z,30.51
2019-04-03T08:00:53.558Z,29.69
2019-04-03T08:03:22.083Z,29.96
2019-04-03T08:05:50.369Z,29.97
2019-04-03T08:08:18.848Z,30.15
2019-04-03T08:10:47.191Z,28.14
2019-04-03T08:13:15.478Z,29.25
2019-04-03T08:15:45.120Z,30.10
2019-04-03T08:18:13.681Z,29.38
2019-04-03T08:20:41.935Z,28.41
2019-04-03T08:23:10.179Z,28.40
2019-04-03T08:25:38.443Z,28.31
2019-04-03T08:28:06.701Z,28.07
2019-04-03T08:30:34.940Z,28.07
2019-04-03T08:33:14.844Z,28.70
2019-04-03T08:35:35.482Z,29.47
2019-04-03T08:38:03.188Z,27.59
2019-04-03T08:40:31.446Z,25.95
2019-04-03T08:43:00.767Z,27.32
2019-04-03T08:45:29.707Z,27.86
2019-04-03T08:47:58.133Z,28.24
2019-04-03T08:50:26.763Z,28.22
2019-04-03T08:52:56.691Z,27.57
2019-04-03T08:55:24.926Z,25.48
2019-04-03T08:57:53.364Z,24.33
2019-04-03T09:00:22.211Z,25.09
2019-04-03T09:02:50.473Z,27.29
2019-04-03T09:05:19.709Z,28.02
2019-04-03T09:07:48.542Z,27.85
2019-04-03T09:10:17.932Z,26.36
2019-04-03T09:12:46.479Z,25.41
2019-04-03T09:15:14.973Z,26.15
2019-04-03T09:17:43.609Z,26.18
2019-04-03T09:20:13.834Z,26.67
2019-04-03T09:22:42.448Z,25.20
2019-04-03T09:25:13.765Z,26.45
2019-04-03T09:27:42.176Z,23.83
2019-04-03T09:30:15.482Z,22.93
2019-04-03T09:32:43.240Z,23.35
2019-04-03T09:35:12.498Z,23.56
2019-04-03T09:37:41.313Z,23.04
2019-04-03T09:40:10.459Z,26.01
2019-04-03T09:42:38.827Z,25.08
2019-04-03T09:45:07.443Z,23.90
2019-04-03T09:47:35.783Z,23.88
2019-04-03T09:50:08.589Z,24.43
2019-04-03T09:52:41.422Z,24.60
2019-04-03T09:55:07.288Z,25.10
2019-04-03T09:57:35.631Z,26.43
2019-04-03T10:00:09.886Z,24.82
2019-04-03T10:02:36.590Z,27.07
2019-04-03T10:05:06.683Z,25.61
2019-04-03T10:07:36.654Z,23.69
2019-04-03T10:10:08.465Z,22.89
2019-04-03T10:12:36.877Z,22.82
2019-04-03T10:15:08.420Z,22.92
2019-04-03T10:17:38.474Z,23.44
2019-04-03T10:20:08.192Z,24.39
2019-04-03T10:22:36.483Z,23.81
2019-04-03T10:25:07.135Z,24.77
2019-04-03T10:27:35.776Z,24.93
2019-04-03T10:30:09.948Z,24.17
2019-04-03T10:32:38.293Z,25.37
2019-04-03T10:35:08.170Z,25.02
2019-04-03T10:37:36.671Z,24.61
2019-04-03T10:40:08.530Z,26.25
2019-04-03T10:42:36.919Z,26.19
2019-04-03T10:45:08.667Z,23.44
2019-04-03T10:47:42.425Z,24.62
2019-04-03T10:50:07.656Z,25.21
2019-04-03T10:52:35.903Z,26.97
2019-04-03T10:55:06.198Z,29.58
2019-04-03T10:57:35.373Z,27.93
2019-04-03T11:00:06.637Z,25.92
2019-04-03T11:02:34.852Z,27.87
2019-04-03T11:05:03.514Z,24.11
2019-04-03T11:07:31.762Z,27.14
2019-04-03T11:10:00.044Z,25.45
2019-04-03T11:12:28.301Z,27.19
2019-04-03T11:14:56.825Z,26.33
2019-04-03T11:17:26.069Z,26.12
2019-04-03T11:19:54.503Z,25.74
2019-04-03T11:22:22.771Z,25.38
2019-04-03T11:24:51.043Z,27.19
2019-04-03T11:27:19.712Z,24.18
2019-04-03T11:29:48.417Z,24.53
2019-04-03T11:32:16.790Z,24.93
2019-04-03T11:34:45.118Z,25.46
2019-04-03T11:37:13.389Z,25.10
2019-04-03T11:39:41.797Z,26.15
2019-04-03T11:42:13.812Z,26.30
2019-04-03T11:44:40.333Z,27.46
2019-04-03T11:47:08.549Z,27.15
2019-04-03T11:49:36.814Z,28.70
2019-04-03T11:52:05.102Z,28.01
2019-04-03T11:54:33.385Z,29.87
2019-04-03T11:57:01.671Z,29.80
2019-04-03T11:59:29.914Z,29.75
2019-04-03T12:01:58.176Z,27.85
2019-04-03T12:04:26.452Z,29.46
2019-04-03T12:06:54.937Z,26.25
2019-04-03T12:09:23.855Z,25.46
2019-04-03T12:11:54.827Z,27.45
2019-04-03T12:14:22.134Z,28.75
2019-04-03T12:16:50.410Z,29.79
2019-04-03T12:19:18.765Z,28.45
2019-04-03T12:21:49.801Z,28.99
2019-04-03T12:24:17.118Z,26.22
2019-04-03T12:26:45.349Z,27.26
2019-04-03T12:29:13.758Z,27.15
2019-04-03T12:31:42.059Z,25.55
2019-04-03T12:34:10.760Z,25.88
2019-04-03T12:36:39.281Z,25.30
2019-04-03T12:39:10.766Z,27.53
2019-04-03T12:41:42.783Z,28.06
2019-04-03T12:44:10.157Z,27.07
2019-04-03T12:46:40.858Z,28.63
2019-04-03T12:49:08.869Z,28.15
2019-04-03T12:51:37.631Z,27.43
2019-04-03T12:54:06.271Z,27.19
2019-04-03T12:56:37.230Z,26.90
2019-04-03T12:59:07.472Z,27.56
2019-04-03T13:01:35.601Z,28.16
2019-04-03T13:04:03.909Z,27.32
2019-04-03T13:06:32.560Z,26.49
2019-04-03T13:09:04.112Z,27.66
2019-04-03T13:11:33.569Z,26.76
2019-04-03T13:14:02.138Z,25.54
2019-04-03T13:16:30.414Z,26.93
2019-04-03T13:18:58.679Z,27.50
2019-04-03T13:21:27.306Z,29.57
2019-04-03T13:23:55.713Z,28.30
2019-04-03T13:26:24.849Z,26.00
2019-04-03T13:28:53.706Z,28.69
2019-04-03T13:31:21.989Z,29.73
2019-04-03T13:33:50.263Z,26.08
2019-04-03T13:36:19.705Z,25.94
2019-04-03T13:38:50.870Z,28.70
2019-04-03T13:41:18.322Z,27.81
2019-04-03T13:43:47.067Z,28.49
2019-04-03T13:46:15.537Z,29.86
2019-04-03T13:48:45.926Z,29.90
2019-04-03T13:51:14.876Z,29.23
2019-04-03T13:53:43.164Z,27.86
2019-04-03T13:56:12.332Z,27.11
2019-04-03T13:58:41.092Z,28.45
2019-04-03T14:01:10.058Z,28.01
2019-04-03T14:03:38.497Z,29.09
2019-04-03T14:06:06.837Z,27.76
2019-04-03T14:08:35.312Z,26.10
2019-04-03T14:11:04.098Z,27.09
2019-04-03T14:13:32.374Z,29.94
2019-04-03T14:16:00.822Z,30.70
2019-04-03T14:18:29.474Z,29.32
2019-04-03T14:20:57.946Z,30.19
2019-04-03T14:23:26.187Z,30.34
2019-04-03T14:26:04.074Z,30.48
2019-04-03T14:28:24.462Z,30.70
2019-04-03T14:30:52.802Z,30.51
2019-04-03T14:33:21.286Z,30.66
2019-04-03T14:35:53.216Z,30.75
2019-04-03T14:38:20.018Z,29.23
2019-04-03T14:40:48.524Z,27.76
2019-04-03T14:43:17.412Z,27.48
2019-04-03T14:45:46.083Z,27.84
2019-04-03T14:48:15.010Z,28.55
2019-04-03T14:50:43.311Z,28.12
2019-04-03T14:53:11.744Z,26.37
2019-04-03T14:55:46.992Z,27.43
2019-04-03T14:58:10.909Z,27.18
2019-04-03T15:00:39.243Z,27.75
2019-04-03T15:03:08.329Z,28.06
2019-04-03T15:05:39.320Z,26.88
2019-04-03T15:08:07.131Z,27.34
2019-04-03T15:10:35.496Z,26.38
2019-04-03T15:13:04.112Z,27.04
2019-04-03T15:15:32.396Z,27.13
2019-04-03T15:18:01.064Z,25.61
2019-04-03T15:20:29.630Z,28.33
2019-04-03T15:22:58.693Z,27.14
2019-04-03T15:25:27.144Z,25.46
2019-04-03T15:27:55.469Z,25.39
2019-04-03T15:30:25.367Z,28.12
2019-04-03T15:32:53.738Z,26.30
2019-04-03T15:35:22.227Z,25.32
2019-04-03T15:37:50.569Z,26.79
2019-04-03T15:40:18.915Z,26.97
2019-04-03T15:42:47.303Z,27.24
2019-04-03T15:45:15.719Z,26.91
2019-04-03T15:47:46.814Z,26.29
2019-04-03T15:50:14.101Z,25.17
2019-04-03T15:52:44.345Z,24.70
2019-04-03T15:55:14.094Z,23.03
2019-04-03T15:57:42.448Z,23.58
2019-04-03T16:00:13.648Z,26.20
2019-04-03T16:02:44.482Z,32.44
2019-04-03T16:05:13.021Z,29.60
2019-04-03T16:07:43.867Z,34.04
2019-04-03T16:10:12.725Z,31.47
2019-04-03T16:12:43.166Z,33.31
2019-04-03T16:15:11.615Z,27.17
2019-04-03T16:17:40.033Z,25.51
2019-04-03T16:20:08.839Z,26.45
2019-04-03T16:22:37.192Z,26.31
2019-04-03T16:25:06.967Z,25.40
2019-04-03T16:27:35.505Z,25.27
2019-04-03T16:30:07.368Z,25.07
2019-04-03T16:32:35.749Z,25.84
2019-04-03T16:35:06.055Z,25.72
2019-04-03T16:37:34.736Z,24.06
2019-04-03T16:40:05.409Z,26.14
2019-04-03T16:42:33.254Z,23.86
2019-04-03T16:45:04.480Z,24.44
2019-04-03T16:47:31.508Z,26.84
2019-04-03T16:50:01.926Z,24.81
2019-04-03T16:52:30.387Z,27.16
2019-04-03T16:54:58.640Z,25.00
2019-04-03T16:57:28.687Z,24.39
2019-04-03T17:00:05.298Z,23.70
2019-04-03T17:02:37.349Z,23.46
2019-04-03T17:05:11.323Z,24.62
2019-04-03T17:07:39.230Z,26.40
2019-04-03T17:10:09.447Z,25.10
2019-04-03T17:12:37.692Z,24.90
2019-04-03T17:15:07.411Z,23.54
2019-04-03T17:17:35.655Z,23.13
2019-04-03T17:20:06.862Z,24.82
2019-04-03T17:22:37.204Z,24.38
2019-04-03T17:25:09.074Z,25.03
2019-04-03T17:27:37.790Z,25.65
2019-04-03T17:30:10.183Z,28.81
2019-04-03T17:32:38.947Z,29.94
2019-04-03T17:35:08.730Z,28.18
2019-04-03T17:37:37.227Z,25.79
2019-04-03T17:40:10.352Z,24.81
2019-04-03T17:42:39.280Z,21.56
2019-04-03T17:45:08.364Z,22.01
2019-04-03T17:47:36.722Z,20.90
2019-04-03T17:50:16.857Z,23.87
2019-04-03T17:52:45.146Z,22.03
2019-04-03T17:55:13.669Z,22.14
2019-04-03T17:57:44.418Z,21.89
2019-04-03T18:00:20.625Z,20.39
2019-04-03T18:02:47.341Z,20.80
2019-04-03T18:05:16.433Z,22.04
2019-04-03T18:07:44.741Z,20.30
2019-04-03T18:10:13.284Z,19.38
2019-04-03T18:12:45.612Z,30.15
2019-04-03T18:15:14.219Z,27.11
2019-04-03T18:17:42.676Z,26.09
2019-04-03T18:20:13.263Z,25.81
2019-04-03T18:22:46.986Z,27.30
2019-04-03T18:25:20.493Z,26.56
2019-04-03T18:27:50.137Z,24.49
2019-04-03T18:30:23.249Z,24.17
2019-04-03T18:32:51.541Z,26.59
2019-04-03T18:35:19.992Z,25.50
2019-04-03T18:37:48.399Z,24.41
2019-04-03T18:40:17.953Z,25.38
2019-04-03T18:42:49.472Z,24.25
2019-04-03T18:45:25.168Z,23.95
2019-04-03T18:47:46.856Z,24.08
2019-04-03T18:50:15.556Z,26.06
2019-04-03T18:52:44.975Z,25.58
2019-04-03T18:55:14.525Z,24.80
2019-04-03T18:57:44.864Z,24.40
2019-04-03T19:00:14.306Z,26.82
2019-04-03T19:02:46.711Z,22.64
2019-04-03T19:05:15.145Z,25.04
2019-04-03T19:07:45.909Z,23.71
2019-04-03T19:10:13.492Z,24.54
2019-04-03T19:12:43.723Z,23.83
2019-04-03T19:15:12.217Z,22.48
2019-04-03T19:17:40.504Z,22.83
2019-04-03T19:20:11.271Z,24.21
2019-04-03T19:22:39.118Z,23.84
2019-04-03T19:25:07.965Z,27.17
2019-04-03T19:27:36.225Z,27.76
2019-04-03T19:30:07.139Z,28.38
2019-04-03T19:32:36.095Z,29.24
2019-04-03T19:35:09.416Z,28.20
2019-04-03T19:37:37.916Z,25.12
2019-04-03T19:40:09.821Z,26.35
2019-04-03T19:42:37.838Z,27.66
2019-04-03T19:45:07.684Z,25.40
2019-04-03T19:47:36.001Z,26.46
2019-04-03T19:50:06.695Z,24.43
2019-04-03T19:52:37.204Z,23.86
2019-04-03T19:55:09.462Z,26.08
2019-04-03T19:57:37.842Z,25.06
2019-04-03T20:00:07.034Z,24.79
2019-04-03T20:02:37.863Z,24.63
2019-04-03T20:05:06.854Z,23.15
2019-04-03T20:07:35.115Z,25.82
2019-04-03T20:10:04.855Z,26.37
2019-04-03T20:12:33.126Z,25.60
2019-04-03T20:15:02.779Z,25.97
2019-04-03T20:17:31.009Z,27.89
2019-04-03T20:19:59.317Z,28.24
2019-04-03T20:22:27.583Z,26.13
2019-04-03T20:25:00.328Z,25.64
2019-04-03T20:27:25.931Z,23.91
2019-04-03T20:29:54.258Z,22.84
2019-04-03T20:32:22.953Z,24.88
2019-04-03T20:34:51.216Z,23.81
2019-04-03T20:37:19.754Z,23.63
2019-04-03T20:39:48.169Z,21.86
2019-04-03T20:42:16.758Z,19.92
2019-04-03T20:44:47.972Z,23.61
2019-04-03T20:47:15.011Z,24.24
2019-04-03T20:49:43.796Z,20.69
2019-04-03T20:52:12.319Z,21.34
2019-04-03T20:54:40.598Z,20.33
2019-04-03T20:57:08.881Z,19.97
2019-04-03T20:59:37.253Z,19.91
2019-04-03T21:02:08.009Z,20.66
2019-04-03T21:04:35.681Z,21.74
2019-04-03T21:07:03.936Z,22.92
2019-04-03T21:09:32.221Z,21.31
2019-04-03T21:12:00.576Z,20.80
2019-04-03T21:14:28.848Z,21.54
2019-04-03T21:16:57.129Z,24.20
2019-04-03T21:19:25.407Z,24.30
2019-04-03T21:21:53.669Z,23.92
2019-04-03T21:24:21.965Z,24.65
2019-04-03T21:26:50.227Z,24.19
2019-04-03T21:29:18.499Z,22.15
2019-04-03T21:31:46.759Z,21.93
2019-04-03T21:34:15.043Z,20.82
2019-04-03T21:36:43.336Z,20.47
2019-04-03T21:39:12.910Z,21.25
2019-04-03T21:41:41.792Z,20.95
2019-04-03T21:44:10.064Z,21.52
2019-04-03T21:46:40.252Z,21.57
2019-04-03T21:49:08.577Z,21.39
2019-04-03T21:51:36.859Z,22.79
2019-04-03T21:54:05.186Z,23.53
2019-04-03T21:56:33.476Z,22.97
2019-04-03T21:59:01.777Z,22.33
2019-04-03T22:01:30.262Z,22.20
2019-04-03T22:03:58.524Z,21.23
2019-04-03T22:06:27.806Z,20.90
2019-04-03T22:08:56.187Z,23.02
2019-04-03T22:11:24.447Z,22.94
2019-04-03T22:13:52.729Z,23.40
2019-04-03T22:16:21.087Z,21.99
2019-04-03T22:18:49.341Z,21.22
2019-04-03T22:21:17.751Z,20.16
2019-04-03T22:23:46.050Z,20.09
2019-04-03T22:26:14.321Z,20.29
2019-04-03T22:28:45.825Z,19.82
2019-04-03T22:31:12.598Z,21.24
2019-04-03T22:33:40.930Z,22.12
2019-04-03T22:36:09.160Z,21.48
2019-04-03T22:38:37.651Z,19.92
2019-04-03T22:41:06.018Z,20.14
2019-04-03T22:43:35.350Z,19.86
2019-04-03T22:46:03.651Z,18.60
2019-04-03T22:48:31.991Z,20.00
2019-04-03T22:51:00.290Z,20.24
2019-04-03T22:53:28.648Z,20.55
2019-04-03T22:55:56.953Z,20.37
2019-04-03T22:58:25.214Z,22.15
2019-04-03T23:00:53.577Z,21.36
2019-04-03T23:03:22.043Z,21.78
2019-04-03T23:05:50.332Z,23.13
2019-04-03T23:08:18.598Z,23.05
2019-04-03T23:10:46.870Z,22.20
2019-04-03T23:13:15.181Z,22.67
2019-04-03T23:15:43.490Z,22.29
2019-04-03T23:18:11.749Z,21.57
2019-04-03T23:20:40.013Z,22.09
2019-04-03T23:23:08.281Z,20.77
2019-04-03T23:25:36.547Z,21.51
2019-04-03T23:28:04.880Z,20.48
2019-04-03T23:30:33.177Z,21.95
2019-04-03T23:33:01.450Z,20.42
2019-04-03T23:35:29.714Z,20.72
2019-04-03T23:37:57.993Z,21.77
2019-04-03T23:40:26.273Z,21.69
2019-04-03T23:42:54.526Z,23.61
2019-04-03T23:45:24.053Z,21.39
2019-04-03T23:47:52.336Z,23.00
2019-04-03T23:50:21.994Z,21.22
2019-04-03T23:52:50.759Z,23.24
2019-04-03T23:55:19.017Z,25.12
2019-04-03T23:57:47.296Z,25.21
